sensor_id;sensor_type;location;lat;lon;timestamp;P1;durP1;ratioP1;P2;durP2;ratioP2
19509;SDS011;9896;42.486;26.506;2023-04-23T00:01:17;13.50;;;6.20;;
19509;SDS011;9896;42.486;26.506;2023-04-23T00:03:43;13.13;;;6.90;;
19509;SDS011;9896;42.486;26.506;2023-04-23T00:06:09;12.10;;;6.83;;
19509;SDS011;9896;42.486;26.506;2023-04-23T00:08:36;11.73;;;6.77;;
19509;SDS011;9896;42.486;26.506;2023-04-23T00:11:03;12.47;;;7.43;;
19509;SDS011;9896;42.486;26.506;2023-04-23T00:13:29;16.30;;;7.93;;
19509;SDS011;9896;42.486;26.506;2023-04-23T00:15:54;12.00;;;7.73;;
19509;SDS011;9896;42.486;26.506;2023-04-23T00:18:19;15.43;;;7.70;;
19509;SDS011;9896;42.486;26.506;2023-04-23T00:20:45;14.30;;;7.57;;
19509;SDS011;9896;42.486;26.506;2023-04-23T00:23:10;13.30;;;8.40;;
19509;SDS011;9896;42.486;26.506;2023-04-23T00:25:35;15.07;;;8.87;;
19509;SDS011;9896;42.486;26.506;2023-04-23T00:28:01;19.50;;;8.70;;
19509;SDS011;9896;42.486;26.506;2023-04-23T00:30:27;16.07;;;7.80;;
19509;SDS011;9896;42.486;26.506;2023-04-23T00:32:52;16.10;;;8.97;;
19509;SDS011;9896;42.486;26.506;2023-04-23T00:35:17;15.37;;;8.23;;
19509;SDS011;9896;42.486;26.506;2023-04-23T00:37:43;13.10;;;8.70;;
19509;SDS011;9896;42.486;26.506;2023-04-23T00:40:08;17.20;;;8.87;;
19509;SDS011;9896;42.486;26.506;2023-04-23T00:42:34;13.97;;;8.60;;
19509;SDS011;9896;42.486;26.506;2023-04-23T00:44:59;16.97;;;9.07;;
19509;SDS011;9896;42.486;26.506;2023-04-23T00:47:27;17.23;;;8.67;;
19509;SDS011;9896;42.486;26.506;2023-04-23T00:49:52;20.43;;;11.93;;
19509;SDS011;9896;42.486;26.506;2023-04-23T00:52:19;19.33;;;9.23;;
19509;SDS011;9896;42.486;26.506;2023-04-23T00:54:45;14.13;;;8.37;;
19509;SDS011;9896;42.486;26.506;2023-04-23T00:57:10;12.70;;;8.47;;
19509;SDS011;9896;42.486;26.506;2023-04-23T00:59:35;16.73;;;8.83;;
19509;SDS011;9896;42.486;26.506;2023-04-23T01:02:01;16.10;;;8.47;;
19509;SDS011;9896;42.486;26.506;2023-04-23T01:04:26;12.57;;;7.87;;
19509;SDS011;9896;42.486;26.506;2023-04-23T01:06:52;15.60;;;8.43;;
19509;SDS011;9896;42.486;26.506;2023-04-23T01:09:17;13.10;;;7.90;;
19509;SDS011;9896;42.486;26.506;2023-04-23T01:11:43;12.83;;;8.70;;
19509;SDS011;9896;42.486;26.506;2023-04-23T01:14:08;12.13;;;8.67;;
19509;SDS011;9896;42.486;26.506;2023-04-23T01:16:34;13.80;;;9.10;;
19509;SDS011;9896;42.486;26.506;2023-04-23T01:19:00;16.60;;;8.17;;
19509;SDS011;9896;42.486;26.506;2023-04-23T01:21:26;17.07;;;8.23;;
19509;SDS011;9896;42.486;26.506;2023-04-23T01:23:52;15.63;;;7.87;;
19509;SDS011;9896;42.486;26.506;2023-04-23T01:26:17;12.67;;;7.90;;
19509;SDS011;9896;42.486;26.506;2023-04-23T01:28:43;14.60;;;8.60;;
19509;SDS011;9896;42.486;26.506;2023-04-23T01:31:10;12.93;;;7.90;;
19509;SDS011;9896;42.486;26.506;2023-04-23T01:33:38;18.23;;;8.93;;
19509;SDS011;9896;42.486;26.506;2023-04-23T01:36:04;18.47;;;9.77;;
19509;SDS011;9896;42.486;26.506;2023-04-23T01:38:29;20.83;;;11.27;;
19509;SDS011;9896;42.486;26.506;2023-04-23T01:40:55;27.17;;;11.60;;
19509;SDS011;9896;42.486;26.506;2023-04-23T01:43:20;27.50;;;11.67;;
19509;SDS011;9896;42.486;26.506;2023-04-23T01:45:46;20.03;;;10.40;;
19509;SDS011;9896;42.486;26.506;2023-04-23T01:48:11;16.63;;;9.77;;
19509;SDS011;9896;42.486;26.506;2023-04-23T01:50:37;19.83;;;9.93;;
19509;SDS011;9896;42.486;26.506;2023-04-23T01:53:02;17.10;;;9.30;;
19509;SDS011;9896;42.486;26.506;2023-04-23T01:55:28;15.07;;;9.17;;
19509;SDS011;9896;42.486;26.506;2023-04-23T01:57:53;15.17;;;8.37;;
19509;SDS011;9896;42.486;26.506;2023-04-23T02:00:18;14.03;;;8.50;;
19509;SDS011;9896;42.486;26.506;2023-04-23T02:02:44;15.37;;;9.10;;
19509;SDS011;9896;42.486;26.506;2023-04-23T02:05:12;16.77;;;9.30;;
19509;SDS011;9896;42.486;26.506;2023-04-23T02:07:37;15.93;;;9.20;;
19509;SDS011;9896;42.486;26.506;2023-04-23T02:10:02;21.93;;;10.17;;
19509;SDS011;9896;42.486;26.506;2023-04-23T02:12:28;22.47;;;9.70;;
19509;SDS011;9896;42.486;26.506;2023-04-23T02:14:53;19.33;;;10.10;;
19509;SDS011;9896;42.486;26.506;2023-04-23T02:17:19;17.00;;;9.23;;
19509;SDS011;9896;42.486;26.506;2023-04-23T02:19:46;17.70;;;10.17;;
19509;SDS011;9896;42.486;26.506;2023-04-23T02:22:12;18.33;;;8.93;;
19509;SDS011;9896;42.486;26.506;2023-04-23T02:24:37;14.97;;;9.13;;
19509;SDS011;9896;42.486;26.506;2023-04-23T02:27:03;16.13;;;9.83;;
19509;SDS011;9896;42.486;26.506;2023-04-23T02:29:28;16.80;;;8.87;;
19509;SDS011;9896;42.486;26.506;2023-04-23T02:31:53;18.77;;;9.30;;
19509;SDS011;9896;42.486;26.506;2023-04-23T02:34:19;20.40;;;9.90;;
19509;SDS011;9896;42.486;26.506;2023-04-23T02:36:44;16.37;;;9.67;;
19509;SDS011;9896;42.486;26.506;2023-04-23T02:39:09;19.90;;;10.13;;
19509;SDS011;9896;42.486;26.506;2023-04-23T02:41:35;17.97;;;10.83;;
19509;SDS011;9896;42.486;26.506;2023-04-23T02:44:00;18.03;;;10.20;;
19509;SDS011;9896;42.486;26.506;2023-04-23T02:46:25;18.07;;;10.37;;
19509;SDS011;9896;42.486;26.506;2023-04-23T02:48:50;22.17;;;10.70;;
19509;SDS011;9896;42.486;26.506;2023-04-23T02:51:16;18.87;;;10.70;;
19509;SDS011;9896;42.486;26.506;2023-04-23T02:53:41;19.00;;;10.57;;
19509;SDS011;9896;42.486;26.506;2023-04-23T02:56:06;24.47;;;11.80;;
19509;SDS011;9896;42.486;26.506;2023-04-23T02:58:32;26.53;;;12.00;;
19509;SDS011;9896;42.486;26.506;2023-04-23T03:00:58;31.40;;;12.60;;
19509;SDS011;9896;42.486;26.506;2023-04-23T03:03:24;22.20;;;10.90;;
19509;SDS011;9896;42.486;26.506;2023-04-23T03:05:51;21.60;;;10.83;;
19509;SDS011;9896;42.486;26.506;2023-04-23T03:08:16;20.93;;;10.57;;
19509;SDS011;9896;42.486;26.506;2023-04-23T03:10:41;24.63;;;10.67;;
19509;SDS011;9896;42.486;26.506;2023-04-23T03:13:07;26.93;;;12.40;;
19509;SDS011;9896;42.486;26.506;2023-04-23T03:15:32;20.53;;;11.00;;
19509;SDS011;9896;42.486;26.506;2023-04-23T03:17:58;22.97;;;11.57;;
19509;SDS011;9896;42.486;26.506;2023-04-23T03:20:23;22.57;;;11.73;;
19509;SDS011;9896;42.486;26.506;2023-04-23T03:22:48;23.20;;;11.63;;
19509;SDS011;9896;42.486;26.506;2023-04-23T03:25:14;22.50;;;11.57;;
19509;SDS011;9896;42.486;26.506;2023-04-23T03:27:39;17.43;;;10.97;;
19509;SDS011;9896;42.486;26.506;2023-04-23T03:30:05;21.63;;;11.30;;
19509;SDS011;9896;42.486;26.506;2023-04-23T03:32:32;17.43;;;10.00;;
19509;SDS011;9896;42.486;26.506;2023-04-23T03:34:57;17.70;;;10.00;;
19509;SDS011;9896;42.486;26.506;2023-04-23T03:37:22;17.23;;;10.53;;
19509;SDS011;9896;42.486;26.506;2023-04-23T03:39:48;18.67;;;10.00;;
19509;SDS011;9896;42.486;26.506;2023-04-23T03:42:13;24.47;;;11.10;;
19509;SDS011;9896;42.486;26.506;2023-04-23T03:44:38;19.20;;;10.13;;
19509;SDS011;9896;42.486;26.506;2023-04-23T03:47:03;19.20;;;10.90;;
19509;SDS011;9896;42.486;26.506;2023-04-23T03:49:29;18.67;;;9.73;;
19509;SDS011;9896;42.486;26.506;2023-04-23T03:51:54;14.37;;;8.53;;
19509;SDS011;9896;42.486;26.506;2023-04-23T03:54:20;16.73;;;8.87;;
19509;SDS011;9896;42.486;26.506;2023-04-23T03:56:47;14.17;;;9.03;;
19509;SDS011;9896;42.486;26.506;2023-04-23T03:59:12;13.63;;;8.17;;
19509;SDS011;9896;42.486;26.506;2023-04-23T04:01:37;16.30;;;8.67;;
19509;SDS011;9896;42.486;26.506;2023-04-23T04:04:03;13.70;;;8.33;;
19509;SDS011;9896;42.486;26.506;2023-04-23T04:06:28;16.03;;;7.60;;
19509;SDS011;9896;42.486;26.506;2023-04-23T04:08:53;14.83;;;7.30;;
19509;SDS011;9896;42.486;26.506;2023-04-23T04:11:19;17.77;;;8.27;;
19509;SDS011;9896;42.486;26.506;2023-04-23T04:13:44;20.07;;;8.80;;
19509;SDS011;9896;42.486;26.506;2023-04-23T04:16:10;14.07;;;7.60;;
19509;SDS011;9896;42.486;26.506;2023-04-23T04:18:35;15.00;;;8.20;;
19509;SDS011;9896;42.486;26.506;2023-04-23T04:21:00;11.80;;;7.77;;
19509;SDS011;9896;42.486;26.506;2023-04-23T04:23:26;14.50;;;8.43;;
19509;SDS011;9896;42.486;26.506;2023-04-23T04:25:51;15.00;;;8.37;;
19509;SDS011;9896;42.486;26.506;2023-04-23T04:28:20;12.07;;;7.33;;
19509;SDS011;9896;42.486;26.506;2023-04-23T04:30:45;16.00;;;8.47;;
19509;SDS011;9896;42.486;26.506;2023-04-23T04:33:13;16.50;;;8.77;;
19509;SDS011;9896;42.486;26.506;2023-04-23T04:35:39;10.60;;;8.07;;
19509;SDS011;9896;42.486;26.506;2023-04-23T04:38:04;17.00;;;7.77;;
19509;SDS011;9896;42.486;26.506;2023-04-23T04:40:29;15.67;;;8.60;;
19509;SDS011;9896;42.486;26.506;2023-04-23T04:42:55;16.77;;;8.60;;
19509;SDS011;9896;42.486;26.506;2023-04-23T04:45:21;16.93;;;10.17;;
19509;SDS011;9896;42.486;26.506;2023-04-23T04:47:47;12.63;;;7.87;;
19509;SDS011;9896;42.486;26.506;2023-04-23T04:50:12;13.97;;;8.20;;
19509;SDS011;9896;42.486;26.506;2023-04-23T04:52:37;13.77;;;8.30;;
19509;SDS011;9896;42.486;26.506;2023-04-23T04:55:03;13.60;;;7.27;;
19509;SDS011;9896;42.486;26.506;2023-04-23T04:57:29;16.00;;;8.07;;
19509;SDS011;9896;42.486;26.506;2023-04-23T04:59:54;12.30;;;7.23;;
19509;SDS011;9896;42.486;26.506;2023-04-23T05:02:21;10.57;;;6.20;;
19509;SDS011;9896;42.486;26.506;2023-04-23T05:04:47;11.73;;;6.90;;
19509;SDS011;9896;42.486;26.506;2023-04-23T05:07:12;12.40;;;7.00;;
19509;SDS011;9896;42.486;26.506;2023-04-23T05:09:38;10.47;;;6.73;;
19509;SDS011;9896;42.486;26.506;2023-04-23T05:12:03;12.10;;;6.80;;
19509;SDS011;9896;42.486;26.506;2023-04-23T05:14:31;18.87;;;8.27;;
19509;SDS011;9896;42.486;26.506;2023-04-23T05:16:56;12.80;;;8.20;;
19509;SDS011;9896;42.486;26.506;2023-04-23T05:19:22;12.90;;;6.90;;
19509;SDS011;9896;42.486;26.506;2023-04-23T05:21:47;19.03;;;7.50;;
19509;SDS011;9896;42.486;26.506;2023-04-23T05:24:13;15.97;;;7.27;;
19509;SDS011;9896;42.486;26.506;2023-04-23T05:26:38;11.97;;;7.30;;
19509;SDS011;9896;42.486;26.506;2023-04-23T05:29:03;10.13;;;6.53;;
19509;SDS011;9896;42.486;26.506;2023-04-23T05:31:28;11.47;;;7.63;;
19509;SDS011;9896;42.486;26.506;2023-04-23T05:33:54;12.57;;;6.80;;
19509;SDS011;9896;42.486;26.506;2023-04-23T05:36:19;8.97;;;6.33;;
19509;SDS011;9896;42.486;26.506;2023-04-23T05:38:45;10.90;;;5.57;;
19509;SDS011;9896;42.486;26.506;2023-04-23T05:41:10;11.33;;;6.30;;
19509;SDS011;9896;42.486;26.506;2023-04-23T05:43:36;11.93;;;6.13;;
19509;SDS011;9896;42.486;26.506;2023-04-23T05:46:01;11.43;;;7.17;;
19509;SDS011;9896;42.486;26.506;2023-04-23T05:48:28;11.53;;;6.57;;
19509;SDS011;9896;42.486;26.506;2023-04-23T05:50:54;10.33;;;5.83;;
19509;SDS011;9896;42.486;26.506;2023-04-23T05:53:19;14.00;;;6.27;;
19509;SDS011;9896;42.486;26.506;2023-04-23T05:55:44;9.33;;;6.27;;
19509;SDS011;9896;42.486;26.506;2023-04-23T05:58:11;11.00;;;5.87;;
19509;SDS011;9896;42.486;26.506;2023-04-23T06:00:36;7.83;;;6.10;;
19509;SDS011;9896;42.486;26.506;2023-04-23T06:03:01;11.73;;;6.00;;
19509;SDS011;9896;42.486;26.506;2023-04-23T06:05:27;13.20;;;6.10;;
19509;SDS011;9896;42.486;26.506;2023-04-23T06:07:52;12.20;;;6.10;;
19509;SDS011;9896;42.486;26.506;2023-04-23T06:10:17;10.67;;;5.77;;
19509;SDS011;9896;42.486;26.506;2023-04-23T06:12:43;12.67;;;5.97;;
19509;SDS011;9896;42.486;26.506;2023-04-23T06:15:08;9.53;;;6.53;;
19509;SDS011;9896;42.486;26.506;2023-04-23T06:17:34;10.73;;;6.03;;
19509;SDS011;9896;42.486;26.506;2023-04-23T06:20:00;7.27;;;5.57;;
19509;SDS011;9896;42.486;26.506;2023-04-23T06:22:25;11.97;;;6.30;;
19509;SDS011;9896;42.486;26.506;2023-04-23T06:24:50;9.80;;;5.40;;
19509;SDS011;9896;42.486;26.506;2023-04-23T06:27:15;14.27;;;5.53;;
19509;SDS011;9896;42.486;26.506;2023-04-23T06:29:41;8.90;;;5.40;;
19509;SDS011;9896;42.486;26.506;2023-04-23T06:32:06;11.93;;;5.67;;
19509;SDS011;9896;42.486;26.506;2023-04-23T06:34:32;9.33;;;5.53;;
19509;SDS011;9896;42.486;26.506;2023-04-23T06:36:57;9.70;;;5.83;;
19509;SDS011;9896;42.486;26.506;2023-04-23T06:39:22;11.60;;;6.20;;
19509;SDS011;9896;42.486;26.506;2023-04-23T06:41:47;9.60;;;5.70;;
19509;SDS011;9896;42.486;26.506;2023-04-23T06:44:13;10.40;;;6.07;;
19509;SDS011;9896;42.486;26.506;2023-04-23T06:46:38;8.57;;;5.43;;
19509;SDS011;9896;42.486;26.506;2023-04-23T06:49:03;13.20;;;6.27;;
19509;SDS011;9896;42.486;26.506;2023-04-23T06:51:29;11.50;;;5.73;;
19509;SDS011;9896;42.486;26.506;2023-04-23T06:53:56;14.27;;;5.70;;
19509;SDS011;9896;42.486;26.506;2023-04-23T06:56:21;9.83;;;5.33;;
19509;SDS011;9896;42.486;26.506;2023-04-23T06:58:46;9.33;;;5.77;;
19509;SDS011;9896;42.486;26.506;2023-04-23T07:01:12;12.70;;;5.63;;
19509;SDS011;9896;42.486;26.506;2023-04-23T07:03:38;7.40;;;5.20;;
19509;SDS011;9896;42.486;26.506;2023-04-23T07:06:03;11.10;;;5.33;;
19509;SDS011;9896;42.486;26.506;2023-04-23T07:08:29;10.13;;;5.23;;
19509;SDS011;9896;42.486;26.506;2023-04-23T07:10:54;8.57;;;5.27;;
19509;SDS011;9896;42.486;26.506;2023-04-23T07:13:19;7.97;;;5.00;;
19509;SDS011;9896;42.486;26.506;2023-04-23T07:15:45;8.13;;;5.30;;
19509;SDS011;9896;42.486;26.506;2023-04-23T07:18:11;11.40;;;4.73;;
19509;SDS011;9896;42.486;26.506;2023-04-23T07:20:36;13.70;;;5.03;;
19509;SDS011;9896;42.486;26.506;2023-04-23T07:23:02;9.03;;;5.00;;
19509;SDS011;9896;42.486;26.506;2023-04-23T07:25:28;11.73;;;5.00;;
19509;SDS011;9896;42.486;26.506;2023-04-23T07:27:53;13.27;;;4.30;;
19509;SDS011;9896;42.486;26.506;2023-04-23T07:30:21;8.80;;;4.53;;
19509;SDS011;9896;42.486;26.506;2023-04-23T07:32:46;7.73;;;4.63;;
19509;SDS011;9896;42.486;26.506;2023-04-23T07:35:13;7.23;;;4.47;;
19509;SDS011;9896;42.486;26.506;2023-04-23T07:37:38;11.27;;;5.33;;
19509;SDS011;9896;42.486;26.506;2023-04-23T07:40:04;9.70;;;5.00;;
19509;SDS011;9896;42.486;26.506;2023-04-23T07:42:30;13.63;;;4.97;;
19509;SDS011;9896;42.486;26.506;2023-04-23T07:44:55;10.07;;;5.40;;
19509;SDS011;9896;42.486;26.506;2023-04-23T07:47:20;16.47;;;4.93;;
19509;SDS011;9896;42.486;26.506;2023-04-23T07:49:45;8.57;;;4.53;;
19509;SDS011;9896;42.486;26.506;2023-04-23T07:52:11;13.37;;;4.73;;
19509;SDS011;9896;42.486;26.506;2023-04-23T07:54:36;10.00;;;5.10;;
19509;SDS011;9896;42.486;26.506;2023-04-23T07:57:01;11.70;;;5.33;;
19509;SDS011;9896;42.486;26.506;2023-04-23T07:59:27;8.57;;;4.60;;
19509;SDS011;9896;42.486;26.506;2023-04-23T08:01:53;8.93;;;4.90;;
19509;SDS011;9896;42.486;26.506;2023-04-23T08:04:18;10.37;;;4.67;;
19509;SDS011;9896;42.486;26.506;2023-04-23T08:06:43;11.73;;;5.30;;
19509;SDS011;9896;42.486;26.506;2023-04-23T08:09:08;14.13;;;5.77;;
19509;SDS011;9896;42.486;26.506;2023-04-23T08:11:34;11.27;;;5.93;;
19509;SDS011;9896;42.486;26.506;2023-04-23T08:13:59;11.17;;;4.80;;
19509;SDS011;9896;42.486;26.506;2023-04-23T08:16:25;13.93;;;4.93;;
19509;SDS011;9896;42.486;26.506;2023-04-23T08:18:51;9.73;;;5.53;;
19509;SDS011;9896;42.486;26.506;2023-04-23T08:21:16;14.13;;;5.20;;
19509;SDS011;9896;42.486;26.506;2023-04-23T08:23:41;11.47;;;4.87;;
19509;SDS011;9896;42.486;26.506;2023-04-23T08:26:07;9.30;;;5.00;;
19509;SDS011;9896;42.486;26.506;2023-04-23T08:28:32;6.73;;;4.93;;
19509;SDS011;9896;42.486;26.506;2023-04-23T08:30:59;8.17;;;4.90;;
19509;SDS011;9896;42.486;26.506;2023-04-23T08:33:24;7.97;;;4.80;;
19509;SDS011;9896;42.486;26.506;2023-04-23T08:35:49;9.47;;;5.20;;
19509;SDS011;9896;42.486;26.506;2023-04-23T08:38:14;12.73;;;4.80;;
19509;SDS011;9896;42.486;26.506;2023-04-23T08:40:40;13.57;;;4.80;;
19509;SDS011;9896;42.486;26.506;2023-04-23T08:43:09;9.20;;;5.37;;
19509;SDS011;9896;42.486;26.506;2023-04-23T08:45:38;15.10;;;4.73;;
19509;SDS011;9896;42.486;26.506;2023-04-23T08:48:05;9.33;;;4.80;;
19509;SDS011;9896;42.486;26.506;2023-04-23T08:50:31;10.80;;;4.87;;
19509;SDS011;9896;42.486;26.506;2023-04-23T08:52:57;11.43;;;4.67;;
19509;SDS011;9896;42.486;26.506;2023-04-23T08:55:22;12.30;;;4.50;;
19509;SDS011;9896;42.486;26.506;2023-04-23T08:57:48;8.03;;;4.70;;
19509;SDS011;9896;42.486;26.506;2023-04-23T09:00:14;9.20;;;4.77;;
19509;SDS011;9896;42.486;26.506;2023-04-23T09:02:41;9.43;;;5.50;;
19509;SDS011;9896;42.486;26.506;2023-04-23T09:05:07;13.77;;;6.33;;
19509;SDS011;9896;42.486;26.506;2023-04-23T09:07:33;9.03;;;4.70;;
19509;SDS011;9896;42.486;26.506;2023-04-23T09:09:58;14.17;;;5.10;;
19509;SDS011;9896;42.486;26.506;2023-04-23T09:12:24;14.00;;;5.30;;
19509;SDS011;9896;42.486;26.506;2023-04-23T09:14:49;10.07;;;4.97;;
19509;SDS011;9896;42.486;26.506;2023-04-23T09:17:17;9.23;;;4.70;;
19509;SDS011;9896;42.486;26.506;2023-04-23T09:19:43;8.83;;;4.27;;
19509;SDS011;9896;42.486;26.506;2023-04-23T09:22:09;12.97;;;4.77;;
19509;SDS011;9896;42.486;26.506;2023-04-23T09:24:34;7.33;;;4.90;;
19509;SDS011;9896;42.486;26.506;2023-04-23T09:26:59;9.83;;;5.27;;
19509;SDS011;9896;42.486;26.506;2023-04-23T09:29:25;11.60;;;4.80;;
19509;SDS011;9896;42.486;26.506;2023-04-23T09:31:54;11.47;;;5.10;;
19509;SDS011;9896;42.486;26.506;2023-04-23T09:34:21;9.70;;;4.90;;
19509;SDS011;9896;42.486;26.506;2023-04-23T09:36:49;6.73;;;4.57;;
19509;SDS011;9896;42.486;26.506;2023-04-23T09:39:15;11.57;;;4.90;;
19509;SDS011;9896;42.486;26.506;2023-04-23T09:41:42;11.50;;;6.00;;
19509;SDS011;9896;42.486;26.506;2023-04-23T09:44:07;9.27;;;4.93;;
19509;SDS011;9896;42.486;26.506;2023-04-23T09:46:34;11.67;;;4.60;;
19509;SDS011;9896;42.486;26.506;2023-04-23T09:49:00;9.43;;;4.70;;
19509;SDS011;9896;42.486;26.506;2023-04-23T09:51:26;15.57;;;4.50;;
19509;SDS011;9896;42.486;26.506;2023-04-23T09:53:52;8.67;;;4.03;;
19509;SDS011;9896;42.486;26.506;2023-04-23T09:56:18;11.53;;;4.50;;
19509;SDS011;9896;42.486;26.506;2023-04-23T09:58:44;7.60;;;4.47;;
19509;SDS011;9896;42.486;26.506;2023-04-23T10:01:09;11.30;;;4.57;;
19509;SDS011;9896;42.486;26.506;2023-04-23T10:03:35;11.03;;;4.50;;
19509;SDS011;9896;42.486;26.506;2023-04-23T10:06:01;6.67;;;4.37;;
19509;SDS011;9896;42.486;26.506;2023-04-23T10:08:27;6.77;;;4.00;;
19509;SDS011;9896;42.486;26.506;2023-04-23T10:10:53;8.73;;;4.83;;
19509;SDS011;9896;42.486;26.506;2023-04-23T10:13:18;10.43;;;4.47;;
19509;SDS011;9896;42.486;26.506;2023-04-23T10:15:45;6.57;;;4.57;;
19509;SDS011;9896;42.486;26.506;2023-04-23T10:18:13;48.97;;;11.53;;
19509;SDS011;9896;42.486;26.506;2023-04-23T10:20:39;8.17;;;7.23;;
19509;SDS011;9896;42.486;26.506;2023-04-23T10:23:04;9.07;;;4.33;;
19509;SDS011;9896;42.486;26.506;2023-04-23T10:25:31;9.57;;;4.50;;
19509;SDS011;9896;42.486;26.506;2023-04-23T10:27:57;11.47;;;4.37;;
19509;SDS011;9896;42.486;26.506;2023-04-23T10:30:24;9.53;;;4.53;;
19509;SDS011;9896;42.486;26.506;2023-04-23T10:32:50;8.93;;;4.33;;
19509;SDS011;9896;42.486;26.506;2023-04-23T10:35:17;10.40;;;4.17;;
19509;SDS011;9896;42.486;26.506;2023-04-23T10:37:42;9.23;;;4.60;;
19509;SDS011;9896;42.486;26.506;2023-04-23T10:40:09;773.27;;;58.73;;
19509;SDS011;9896;42.486;26.506;2023-04-23T10:42:40;369.60;;;39.90;;
19509;SDS011;9896;42.486;26.506;2023-04-23T10:45:29;6.40;;;4.13;;
19509;SDS011;9896;42.486;26.506;2023-04-23T10:47:52;147.27;;;14.57;;
19509;SDS011;9896;42.486;26.506;2023-04-23T10:50:20;76.43;;;10.30;;
19509;SDS011;9896;42.486;26.506;2023-04-23T10:52:47;6.97;;;5.67;;
19509;SDS011;9896;42.486;26.506;2023-04-23T10:55:20;7.13;;;4.37;;
19509;SDS011;9896;42.486;26.506;2023-04-23T11:00:21;9.17;;;4.50;;
19509;SDS011;9896;42.486;26.506;2023-04-23T11:02:46;9.53;;;4.10;;
19509;SDS011;9896;42.486;26.506;2023-04-23T11:05:12;11.37;;;5.53;;
19509;SDS011;9896;42.486;26.506;2023-04-23T11:07:38;9.80;;;4.20;;
19509;SDS011;9896;42.486;26.506;2023-04-23T11:10:10;7.03;;;3.80;;
19509;SDS011;9896;42.486;26.506;2023-04-23T11:15:42;87.37;;;17.20;;
19509;SDS011;9896;42.486;26.506;2023-04-23T11:18:11;7.80;;;3.77;;
19509;SDS011;9896;42.486;26.506;2023-04-23T11:20:38;8.70;;;5.13;;
19509;SDS011;9896;42.486;26.506;2023-04-23T11:23:32;9.03;;;4.30;;
19509;SDS011;9896;42.486;26.506;2023-04-23T11:26:15;6.57;;;3.70;;
19509;SDS011;9896;42.486;26.506;2023-04-23T11:31:36;93.00;;;15.57;;
19509;SDS011;9896;42.486;26.506;2023-04-23T11:34:05;7.47;;;3.90;;
19509;SDS011;9896;42.486;26.506;2023-04-23T11:36:32;10.40;;;5.33;;
19509;SDS011;9896;42.486;26.506;2023-04-23T11:38:57;9.83;;;4.13;;
19509;SDS011;9896;42.486;26.506;2023-04-23T11:41:24;6.93;;;3.90;;
19509;SDS011;9896;42.486;26.506;2023-04-23T11:43:49;9.57;;;4.20;;
19509;SDS011;9896;42.486;26.506;2023-04-23T11:46:14;6.73;;;3.97;;
19509;SDS011;9896;42.486;26.506;2023-04-23T11:48:40;9.93;;;4.77;;
19509;SDS011;9896;42.486;26.506;2023-04-23T11:51:05;12.33;;;5.73;;
19509;SDS011;9896;42.486;26.506;2023-04-23T11:53:30;6.90;;;4.57;;
19509;SDS011;9896;42.486;26.506;2023-04-23T11:55:56;8.70;;;4.83;;
19509;SDS011;9896;42.486;26.506;2023-04-23T11:58:22;8.70;;;4.07;;
19509;SDS011;9896;42.486;26.506;2023-04-23T12:00:49;6.33;;;4.13;;
19509;SDS011;9896;42.486;26.506;2023-04-23T12:03:20;9.93;;;4.30;;
19509;SDS011;9896;42.486;26.506;2023-04-23T12:05:49;11.20;;;4.70;;
19509;SDS011;9896;42.486;26.506;2023-04-23T12:08:16;10.20;;;4.20;;
19509;SDS011;9896;42.486;26.506;2023-04-23T12:13:30;7.07;;;3.83;;
19509;SDS011;9896;42.486;26.506;2023-04-23T12:16:02;9.23;;;5.30;;
19509;SDS011;9896;42.486;26.506;2023-04-23T12:18:28;7.10;;;4.07;;
19509;SDS011;9896;42.486;26.506;2023-04-23T12:20:53;7.50;;;5.23;;
19509;SDS011;9896;42.486;26.506;2023-04-23T12:23:24;9.00;;;4.00;;
19509;SDS011;9896;42.486;26.506;2023-04-23T12:25:51;8.20;;;3.97;;
19509;SDS011;9896;42.486;26.506;2023-04-23T12:28:16;10.00;;;4.30;;
19509;SDS011;9896;42.486;26.506;2023-04-23T12:30:46;7.50;;;4.13;;
19509;SDS011;9896;42.486;26.506;2023-04-23T12:33:11;21.47;;;6.37;;
19509;SDS011;9896;42.486;26.506;2023-04-23T12:38:06;9.07;;;4.37;;
19509;SDS011;9896;42.486;26.506;2023-04-23T12:40:31;6.43;;;4.07;;
19509;SDS011;9896;42.486;26.506;2023-04-23T12:42:57;5.53;;;3.87;;
19509;SDS011;9896;42.486;26.506;2023-04-23T12:45:22;7.50;;;4.17;;
19509;SDS011;9896;42.486;26.506;2023-04-23T12:47:47;69.67;;;16.27;;
19509;SDS011;9896;42.486;26.506;2023-04-23T12:50:13;10.27;;;4.23;;
19509;SDS011;9896;42.486;26.506;2023-04-23T12:52:38;98.00;;;11.63;;
19509;SDS011;9896;42.486;26.506;2023-04-23T12:55:04;27.00;;;11.07;;
19509;SDS011;9896;42.486;26.506;2023-04-23T12:57:30;7.27;;;4.00;;
19509;SDS011;9896;42.486;26.506;2023-04-23T12:59:55;9.03;;;6.70;;
19509;SDS011;9896;42.486;26.506;2023-04-23T13:02:21;6.97;;;3.80;;
19509;SDS011;9896;42.486;26.506;2023-04-23T13:04:46;6.10;;;4.17;;
19509;SDS011;9896;42.486;26.506;2023-04-23T13:07:11;9.53;;;4.43;;
19509;SDS011;9896;42.486;26.506;2023-04-23T13:09:37;8.73;;;4.27;;
19509;SDS011;9896;42.486;26.506;2023-04-23T13:12:03;589.23;;;80.90;;
19509;SDS011;9896;42.486;26.506;2023-04-23T13:14:29;5.63;;;3.93;;
19509;SDS011;9896;42.486;26.506;2023-04-23T13:16:56;8.17;;;5.17;;
19509;SDS011;9896;42.486;26.506;2023-04-23T13:19:22;9.70;;;4.00;;
19509;SDS011;9896;42.486;26.506;2023-04-23T13:21:47;41.23;;;17.10;;
19509;SDS011;9896;42.486;26.506;2023-04-23T13:24:13;7.50;;;4.87;;
19509;SDS011;9896;42.486;26.506;2023-04-23T13:26:39;686.97;;;135.83;;
19509;SDS011;9896;42.486;26.506;2023-04-23T13:29:05;1551.97;;;197.83;;
19509;SDS011;9896;42.486;26.506;2023-04-23T13:31:32;7.73;;;4.23;;
19509;SDS011;9896;42.486;26.506;2023-04-23T13:33:57;90.73;;;22.77;;
19509;SDS011;9896;42.486;26.506;2023-04-23T13:36:23;31.60;;;11.33;;
19509;SDS011;9896;42.486;26.506;2023-04-23T13:38:49;8.77;;;3.97;;
19509;SDS011;9896;42.486;26.506;2023-04-23T13:41:15;6.17;;;5.57;;
19509;SDS011;9896;42.486;26.506;2023-04-23T13:43:40;21.57;;;14.70;;
19509;SDS011;9896;42.486;26.506;2023-04-23T13:46:06;59.33;;;55.70;;
19509;SDS011;9896;42.486;26.506;2023-04-23T13:48:31;270.73;;;208.30;;
19509;SDS011;9896;42.486;26.506;2023-04-23T13:50:57;165.63;;;100.20;;
19509;SDS011;9896;42.486;26.506;2023-04-23T13:53:23;100.30;;;92.70;;
19509;SDS011;9896;42.486;26.506;2023-04-23T13:55:49;1999.90;;;390.33;;
19509;SDS011;9896;42.486;26.506;2023-04-23T13:58:15;406.60;;;118.13;;
19509;SDS011;9896;42.486;26.506;2023-04-23T14:00:41;56.83;;;14.77;;
19509;SDS011;9896;42.486;26.506;2023-04-23T14:03:07;330.70;;;52.87;;
19509;SDS011;9896;42.486;26.506;2023-04-23T14:05:32;9.70;;;7.20;;
19509;SDS011;9896;42.486;26.506;2023-04-23T14:07:58;22.10;;;15.20;;
19509;SDS011;9896;42.486;26.506;2023-04-23T14:10:23;331.93;;;41.87;;
19509;SDS011;9896;42.486;26.506;2023-04-23T14:12:49;44.23;;;18.67;;
19509;SDS011;9896;42.486;26.506;2023-04-23T14:15:15;1182.00;;;689.07;;
19509;SDS011;9896;42.486;26.506;2023-04-23T14:17:41;1999.90;;;960.87;;
19509;SDS011;9896;42.486;26.506;2023-04-23T14:20:08;1999.90;;;999.90;;
19509;SDS011;9896;42.486;26.506;2023-04-23T14:22:34;1999.90;;;999.90;;
19509;SDS011;9896;42.486;26.506;2023-04-23T14:25:00;1999.90;;;999.90;;
19509;SDS011;9896;42.486;26.506;2023-04-23T14:27:26;1999.90;;;999.90;;
19509;SDS011;9896;42.486;26.506;2023-04-23T14:32:19;1999.90;;;999.90;;
19509;SDS011;9896;42.486;26.506;2023-04-23T14:34:44;1999.90;;;999.90;;
19509;SDS011;9896;42.486;26.506;2023-04-23T14:37:10;1999.90;;;999.90;;
19509;SDS011;9896;42.486;26.506;2023-04-23T14:39:36;1999.90;;;999.90;;
19509;SDS011;9896;42.486;26.506;2023-04-23T14:42:02;1999.90;;;999.90;;